Terminal Aerodrome Forecast
Issued by NWS

Home | Current Version | Previous Version | Text Only | Print | Product List | Glossary On
Versions: 1 2 3 4 5 6 7 8 9 10 11 12 13
000
FTUS46 KPDT 301138
TAFDLS
TAF
KDLS 301138Z 3012/3112 30009KT P6SM SCT150
     FM301700 31014G22KT P6SM SCT120
     FM310500 30008KT P6SM BKN120=

USA.gov is the U.S. government's official web portal to all federal, state and local government web resources and services.